createdAt,value
2017-05-05T00:00:54.782Z,975.10
2017-05-05T00:01:57.151Z,975.07
2017-05-05T00:03:00.111Z,975.12
2017-05-05T00:04:02.487Z,975.13
2017-05-05T00:05:05.055Z,975.15
2017-05-05T00:06:07.413Z,975.17
2017-05-05T00:07:09.777Z,975.17
2017-05-05T00:08:12.693Z,975.17
2017-05-05T00:09:15.050Z,975.21
2017-05-05T00:10:17.417Z,975.20
2017-05-05T00:11:19.775Z,975.19
2017-05-05T00:12:22.157Z,975.20
2017-05-05T00:13:25.103Z,975.17
2017-05-05T00:14:27.454Z,975.21
2017-05-05T00:15:29.820Z,975.21
2017-05-05T00:16:32.183Z,975.23
2017-05-05T00:17:34.540Z,975.25
2017-05-05T00:18:37.451Z,975.26
2017-05-05T00:19:39.809Z,975.29
2017-05-05T00:20:42.167Z,975.33
2017-05-05T00:21:44.525Z,975.32
2017-05-05T00:22:46.886Z,975.31
2017-05-05T00:23:49.852Z,975.34
2017-05-05T00:24:52.206Z,975.36
2017-05-05T00:25:54.570Z,975.34
2017-05-05T00:26:56.929Z,975.36
2017-05-05T00:27:59.286Z,975.38
2017-05-05T00:29:02.251Z,975.36
2017-05-05T00:30:04.623Z,975.40
2017-05-05T00:31:06.989Z,975.42
2017-05-05T00:32:09.346Z,975.40
2017-05-05T00:33:11.700Z,975.45
2017-05-05T00:34:14.664Z,975.47
2017-05-05T00:35:17.018Z,975.49
2017-05-05T00:36:19.386Z,975.48
2017-05-05T00:37:21.747Z,975.48
2017-05-05T00:38:24.113Z,975.48
2017-05-05T00:39:27.071Z,975.49
2017-05-05T00:40:29.435Z,975.49
2017-05-05T00:41:31.797Z,975.45
2017-05-05T00:42:34.153Z,975.52
2017-05-05T00:43:36.529Z,975.54
2017-05-05T00:44:39.498Z,975.51
2017-05-05T00:45:41.855Z,975.57
2017-05-05T00:46:44.220Z,975.59
2017-05-05T00:47:46.583Z,975.67
2017-05-05T00:48:48.964Z,975.70
2017-05-05T00:49:51.919Z,975.70
2017-05-05T00:50:54.278Z,975.72
2017-05-05T00:51:56.641Z,975.74
2017-05-05T00:52:59.001Z,975.76
2017-05-05T00:54:01.366Z,975.78
2017-05-05T00:55:04.332Z,975.85
2017-05-05T00:56:06.696Z,975.88
2017-05-05T00:57:09.055Z,975.85
2017-05-05T00:58:11.411Z,975.90
2017-05-05T00:59:13.779Z,975.91
2017-05-05T01:00:16.689Z,975.93
2017-05-05T01:01:19.056Z,975.94
2017-05-05T01:02:21.408Z,975.92
2017-05-05T01:03:23.774Z,975.97
2017-05-05T01:04:26.144Z,975.95
2017-05-05T01:05:29.108Z,976.00
2017-05-05T01:06:31.465Z,976.04
2017-05-05T01:07:33.824Z,976.05
2017-05-05T01:08:36.191Z,976.07
2017-05-05T01:09:38.553Z,976.09
2017-05-05T01:10:41.513Z,976.05
2017-05-05T01:11:43.873Z,976.11
2017-05-05T01:12:46.246Z,976.13
2017-05-05T01:13:48.609Z,976.14
2017-05-05T01:14:50.963Z,976.17
2017-05-05T01:15:53.961Z,976.18
2017-05-05T01:16:56.322Z,976.20
2017-05-05T01:17:58.681Z,976.24
2017-05-05T01:19:01.049Z,976.23
2017-05-05T01:20:03.414Z,976.23
2017-05-05T01:21:06.374Z,976.25
2017-05-05T01:22:08.747Z,976.27
2017-05-05T01:23:11.097Z,976.30
2017-05-05T01:24:13.459Z,976.33
2017-05-05T01:25:15.843Z,976.37
2017-05-05T01:26:18.753Z,976.34
2017-05-05T01:27:21.107Z,976.38
2017-05-05T01:28:23.464Z,976.41
2017-05-05T01:29:25.836Z,976.43
2017-05-05T01:30:28.225Z,976.42
2017-05-05T01:31:31.187Z,976.47
2017-05-05T01:32:33.550Z,976.44
2017-05-05T01:33:35.909Z,976.44
2017-05-05T01:34:38.282Z,976.45
2017-05-05T01:35:40.660Z,976.46
2017-05-05T01:36:43.573Z,976.49
2017-05-05T01:37:45.938Z,976.44
2017-05-05T01:38:48.289Z,976.47
2017-05-05T01:39:50.657Z,976.48
2017-05-05T01:40:53.015Z,976.45
2017-05-05T01:41:55.939Z,976.49
2017-05-05T01:42:58.294Z,976.48
2017-05-05T01:44:00.664Z,976.50
2017-05-05T01:45:03.021Z,976.49
2017-05-05T01:46:05.403Z,976.47
2017-05-05T01:47:08.374Z,976.48
2017-05-05T01:48:10.733Z,976.50
2017-05-05T01:49:13.088Z,976.55
2017-05-05T01:50:15.453Z,976.51
2017-05-05T01:51:17.815Z,976.53
2017-05-05T01:52:20.776Z,976.51
2017-05-05T01:53:23.137Z,976.57
2017-05-05T01:54:25.494Z,976.53
2017-05-05T01:55:27.853Z,976.59
2017-05-05T01:56:30.225Z,976.58
2017-05-05T01:57:33.178Z,976.59
2017-05-05T01:58:35.532Z,976.62
2017-05-05T01:59:37.905Z,976.63
2017-05-05T02:00:40.270Z,976.65
2017-05-05T02:01:42.633Z,976.66
2017-05-05T02:02:45.602Z,976.66
2017-05-05T02:03:47.963Z,976.67
2017-05-05T02:04:50.323Z,976.70
2017-05-05T02:05:52.684Z,976.71
2017-05-05T02:06:55.052Z,976.71
2017-05-05T02:07:58.228Z,976.73
2017-05-05T02:09:00.792Z,976.73
2017-05-05T02:10:03.346Z,976.77
2017-05-05T02:11:05.710Z,976.80
2017-05-05T02:12:08.074Z,976.85
2017-05-05T02:13:11.039Z,976.86
2017-05-05T02:14:13.397Z,976.82
2017-05-05T02:15:15.771Z,976.82
2017-05-05T02:16:18.139Z,976.81
2017-05-05T02:17:20.489Z,976.84
2017-05-05T02:18:23.468Z,976.84
2017-05-05T02:19:25.824Z,976.89
2017-05-05T02:20:28.183Z,976.90
2017-05-05T02:21:30.560Z,976.93
2017-05-05T02:22:32.911Z,976.96
2017-05-05T02:23:35.827Z,976.97
2017-05-05T02:24:38.183Z,976.97
2017-05-05T02:25:40.548Z,976.99
2017-05-05T02:26:42.935Z,977.05
2017-05-05T02:27:45.286Z,977.07
2017-05-05T02:28:48.253Z,977.09
2017-05-05T02:29:50.622Z,977.09
2017-05-05T02:30:52.989Z,977.12
2017-05-05T02:31:55.364Z,977.11
2017-05-05T02:32:57.727Z,977.13
2017-05-05T02:34:00.683Z,977.19
2017-05-05T02:35:03.042Z,977.17
2017-05-05T02:36:05.407Z,977.19
2017-05-05T02:37:07.764Z,977.19
2017-05-05T02:38:10.138Z,977.20
2017-05-05T02:39:13.046Z,977.19
2017-05-05T02:40:15.403Z,977.19
2017-05-05T02:41:17.790Z,977.23
2017-05-05T02:42:20.147Z,977.24
2017-05-05T02:43:22.495Z,977.25
2017-05-05T02:44:25.478Z,977.27
2017-05-05T02:45:27.903Z,977.25
2017-05-05T02:46:30.463Z,977.25
2017-05-05T02:47:32.848Z,977.26
2017-05-05T02:48:35.214Z,977.28
2017-05-05T02:49:38.174Z,977.24
2017-05-05T02:50:40.533Z,977.24
2017-05-05T02:51:42.904Z,977.26
2017-05-05T02:52:45.261Z,977.26
2017-05-05T02:53:47.627Z,977.28
2017-05-05T02:54:50.599Z,977.25
2017-05-05T02:55:52.945Z,977.28
2017-05-05T02:56:55.304Z,977.26
2017-05-05T02:57:57.920Z,977.27
2017-05-05T02:59:00.407Z,977.23
2017-05-05T03:00:05.274Z,977.21
2017-05-05T03:01:07.728Z,977.21
2017-05-05T03:02:10.245Z,977.18
2017-05-05T03:03:12.626Z,977.18
2017-05-05T03:04:14.947Z,977.21
2017-05-05T03:05:17.903Z,977.20
2017-05-05T03:06:20.258Z,977.18
2017-05-05T03:07:22.622Z,977.21
2017-05-05T03:08:24.993Z,977.19
2017-05-05T03:09:27.360Z,977.19
2017-05-05T03:10:30.319Z,977.15
2017-05-05T03:11:32.697Z,977.15
2017-05-05T03:12:35.053Z,977.16
2017-05-05T03:13:37.415Z,977.16
2017-05-05T03:14:39.783Z,977.15
2017-05-05T03:15:42.740Z,977.18
2017-05-05T03:16:45.098Z,977.16
2017-05-05T03:17:47.460Z,977.16
2017-05-05T03:18:49.821Z,977.19
2017-05-05T03:19:52.186Z,977.21
2017-05-05T03:20:55.150Z,977.21
2017-05-05T03:21:57.507Z,977.22
2017-05-05T03:22:59.872Z,977.23
2017-05-05T03:24:02.248Z,977.24
2017-05-05T03:25:04.599Z,977.21
2017-05-05T03:26:07.569Z,977.24
2017-05-05T03:27:09.926Z,977.24
2017-05-05T03:28:12.299Z,977.24
2017-05-05T03:29:14.660Z,977.24
2017-05-05T03:30:17.023Z,977.23
2017-05-05T03:31:19.975Z,977.23
2017-05-05T03:32:22.337Z,977.21
2017-05-05T03:33:24.696Z,977.18
2017-05-05T03:34:27.054Z,977.20
2017-05-05T03:35:29.414Z,977.18
2017-05-05T03:36:32.377Z,977.18
2017-05-05T03:37:34.740Z,977.18
2017-05-05T03:38:37.099Z,977.14
2017-05-05T03:39:39.457Z,977.15
2017-05-05T03:40:41.816Z,977.16
2017-05-05T03:41:44.775Z,977.18
2017-05-05T03:42:47.123Z,977.16
2017-05-05T03:43:49.489Z,977.18
2017-05-05T03:44:51.856Z,977.19
2017-05-05T03:45:54.215Z,977.21
2017-05-05T03:46:57.185Z,977.20
2017-05-05T03:47:59.539Z,977.22
2017-05-05T03:49:01.903Z,977.26
2017-05-05T03:50:04.255Z,977.24
2017-05-05T03:51:06.614Z,977.30
2017-05-05T03:52:09.527Z,977.31
2017-05-05T03:53:11.892Z,977.31
2017-05-05T03:54:14.262Z,977.36
2017-05-05T03:55:16.612Z,977.38
2017-05-05T03:56:18.974Z,977.38
2017-05-05T03:57:21.897Z,977.38
2017-05-05T03:58:24.239Z,977.38
2017-05-05T03:59:26.601Z,977.33
2017-05-05T04:00:28.964Z,977.30
2017-05-05T04:01:31.322Z,977.29
2017-05-05T04:02:34.294Z,977.28
2017-05-05T04:03:36.652Z,977.27
2017-05-05T04:04:39.019Z,977.26
2017-05-05T04:05:41.381Z,977.27
2017-05-05T04:06:43.743Z,977.27
2017-05-05T04:07:46.701Z,977.33
2017-05-05T04:08:49.258Z,977.34
2017-05-05T04:09:51.634Z,977.33
2017-05-05T04:10:53.995Z,977.35
2017-05-05T04:11:56.348Z,977.31
2017-05-05T04:12:59.310Z,977.35
2017-05-05T04:14:01.679Z,977.35
2017-05-05T04:15:04.032Z,977.31
2017-05-05T04:16:06.399Z,977.34
2017-05-05T04:17:08.759Z,977.36
2017-05-05T04:18:11.817Z,977.38
2017-05-05T04:19:14.171Z,977.34
2017-05-05T04:20:16.528Z,977.36
2017-05-05T04:21:18.889Z,977.38
2017-05-05T04:22:21.249Z,977.37
2017-05-05T04:23:24.210Z,977.38
2017-05-05T04:24:26.575Z,977.38
2017-05-05T04:25:28.929Z,977.40
2017-05-05T04:26:31.298Z,977.41
2017-05-05T04:27:33.655Z,977.39
2017-05-05T04:28:36.619Z,977.39
2017-05-05T04:29:38.985Z,977.44
2017-05-05T04:30:41.345Z,977.40
2017-05-05T04:31:43.705Z,977.41
2017-05-05T04:32:46.064Z,977.43
2017-05-05T04:33:49.044Z,977.43
2017-05-05T04:34:51.397Z,977.45
2017-05-05T04:35:53.763Z,977.44
2017-05-05T04:36:56.117Z,977.43
2017-05-05T04:37:58.481Z,977.44
2017-05-05T04:39:01.440Z,977.46
2017-05-05T04:40:03.808Z,977.46
2017-05-05T04:41:06.165Z,977.49
2017-05-05T04:42:08.521Z,977.45
2017-05-05T04:43:10.891Z,977.46
2017-05-05T04:44:13.805Z,977.47
2017-05-05T04:45:16.167Z,977.48
2017-05-05T04:46:18.525Z,977.46
2017-05-05T04:47:20.889Z,977.41
2017-05-05T04:48:23.250Z,977.45
2017-05-05T04:49:26.217Z,977.39
2017-05-05T04:50:28.580Z,977.36
2017-05-05T04:51:30.942Z,977.34
2017-05-05T04:52:33.303Z,977.35
2017-05-05T04:53:35.664Z,977.34
2017-05-05T04:54:38.613Z,977.33
2017-05-05T04:55:40.976Z,977.34
2017-05-05T04:56:43.327Z,977.32
2017-05-05T04:57:45.687Z,977.33
2017-05-05T04:58:48.043Z,977.30
2017-05-05T04:59:50.999Z,977.33
2017-05-05T05:00:53.359Z,977.30
2017-05-05T05:01:55.723Z,977.26
2017-05-05T05:02:58.081Z,977.24
2017-05-05T05:04:00.443Z,977.26
2017-05-05T05:05:03.408Z,977.22
2017-05-05T05:06:05.766Z,977.19
2017-05-05T05:07:08.125Z,977.23
2017-05-05T05:08:10.479Z,977.17
2017-05-05T05:09:12.840Z,977.18
2017-05-05T05:10:15.799Z,977.19
2017-05-05T05:11:18.173Z,977.19
2017-05-05T05:12:20.530Z,977.20
2017-05-05T05:13:22.891Z,977.21
2017-05-05T05:14:25.249Z,977.17
2017-05-05T05:15:28.209Z,977.15
2017-05-05T05:16:30.567Z,977.13
2017-05-05T05:17:32.930Z,977.12
2017-05-05T05:18:35.288Z,977.09
2017-05-05T05:19:37.663Z,977.09
2017-05-05T05:20:40.621Z,977.08
2017-05-05T05:21:42.985Z,977.08
2017-05-05T05:22:45.338Z,977.06
2017-05-05T05:23:47.696Z,977.07
2017-05-05T05:24:50.060Z,977.07
2017-05-05T05:25:52.967Z,977.03
2017-05-05T05:26:55.325Z,977.03
2017-05-05T05:27:57.696Z,977.03
2017-05-05T05:29:00.061Z,977.03
2017-05-05T05:30:02.409Z,977.02
2017-05-05T05:31:05.368Z,977.06
2017-05-05T05:32:07.728Z,977.05
2017-05-05T05:33:10.088Z,977.06
2017-05-05T05:34:12.448Z,977.03
2017-05-05T05:35:14.813Z,977.03
2017-05-05T05:36:17.789Z,977.05
2017-05-05T05:37:20.141Z,977.05
2017-05-05T05:38:22.500Z,977.07
2017-05-05T05:39:24.856Z,977.08
2017-05-05T05:40:27.226Z,977.06
2017-05-05T05:41:30.283Z,977.06
2017-05-05T05:42:32.644Z,977.07
2017-05-05T05:43:35.012Z,977.09
2017-05-05T05:44:37.373Z,977.07
2017-05-05T05:45:39.737Z,977.09
2017-05-05T05:46:42.652Z,977.04
2017-05-05T05:47:45.010Z,977.03
2017-05-05T05:48:47.365Z,976.99
2017-05-05T05:49:49.728Z,976.92
2017-05-05T05:50:52.109Z,976.96
2017-05-05T05:51:55.057Z,976.92
2017-05-05T05:52:57.418Z,976.91
2017-05-05T05:53:59.772Z,976.91
2017-05-05T05:55:02.135Z,976.92
2017-05-05T05:56:04.489Z,976.92
2017-05-05T05:57:07.453Z,976.90
2017-05-05T05:58:09.814Z,976.90
2017-05-05T05:59:13.380Z,976.87
2017-05-05T06:00:15.734Z,976.82
2017-05-05T06:01:18.094Z,976.84
2017-05-05T06:02:21.050Z,976.86
2017-05-05T06:03:23.410Z,976.89
2017-05-05T06:04:25.771Z,976.87
2017-05-05T06:05:28.127Z,976.84
2017-05-05T06:06:30.483Z,976.83
2017-05-05T06:07:33.554Z,976.81
2017-05-05T06:08:35.912Z,976.83
2017-05-05T06:09:38.279Z,976.80
2017-05-05T06:10:40.640Z,976.80
2017-05-05T06:11:43.009Z,976.79
2017-05-05T06:12:45.975Z,976.77
2017-05-05T06:13:48.332Z,976.76
2017-05-05T06:14:50.688Z,976.77
2017-05-05T06:15:53.040Z,976.74
2017-05-05T06:16:55.399Z,976.77
2017-05-05T06:17:58.469Z,976.76
2017-05-05T06:19:00.834Z,976.76
2017-05-05T06:20:03.190Z,976.71
2017-05-05T06:21:05.570Z,976.72
2017-05-05T06:22:07.928Z,976.68
2017-05-05T06:23:10.874Z,976.67
2017-05-05T06:24:13.236Z,976.70
2017-05-05T06:25:15.648Z,976.62
2017-05-05T06:26:18.005Z,976.66
2017-05-05T06:27:20.364Z,976.64
2017-05-05T06:28:23.328Z,976.63
2017-05-05T06:29:25.687Z,976.63
2017-05-05T06:30:28.049Z,976.62
2017-05-05T06:31:30.405Z,976.59
2017-05-05T06:32:32.765Z,976.61
2017-05-05T06:33:35.734Z,976.64
2017-05-05T06:34:38.090Z,976.60
2017-05-05T06:35:40.458Z,976.56
2017-05-05T06:36:42.811Z,976.54
2017-05-05T06:37:45.166Z,976.52
2017-05-05T06:38:48.139Z,976.54
2017-05-05T06:39:50.495Z,976.52
2017-05-05T06:40:52.855Z,976.51
2017-05-05T06:41:55.209Z,976.52
2017-05-05T06:42:57.576Z,976.52
2017-05-05T06:44:00.545Z,976.52
2017-05-05T06:45:02.898Z,976.49
2017-05-05T06:46:05.264Z,976.51
2017-05-05T06:47:07.627Z,976.51
2017-05-05T06:48:09.990Z,976.50
2017-05-05T06:49:13.048Z,976.44
2017-05-05T06:50:15.408Z,976.48
2017-05-05T06:51:17.764Z,976.46
2017-05-05T06:52:20.129Z,976.42
2017-05-05T06:53:22.488Z,976.44
2017-05-05T06:54:25.648Z,976.39
2017-05-05T06:55:28.008Z,976.35
2017-05-05T06:56:30.365Z,976.41
2017-05-05T06:57:45.461Z,976.40
2017-05-05T06:59:31.629Z,976.37
2017-05-05T07:00:33.999Z,976.34
2017-05-05T07:01:36.352Z,976.34
2017-05-05T07:02:38.732Z,976.36
2017-05-05T07:03:41.085Z,976.34
2017-05-05T07:04:44.055Z,976.32
2017-05-05T07:05:46.417Z,976.32
2017-05-05T07:06:48.769Z,976.31
2017-05-05T07:07:51.137Z,976.30
2017-05-05T07:08:53.490Z,976.31
2017-05-05T07:09:56.449Z,976.28
2017-05-05T07:10:58.805Z,976.23
2017-05-05T07:12:01.172Z,976.29
2017-05-05T07:13:03.523Z,976.29
2017-05-05T07:14:05.879Z,976.26
2017-05-05T07:15:08.839Z,976.24
2017-05-05T07:16:11.190Z,976.25
2017-05-05T07:17:13.551Z,976.28
2017-05-05T07:18:15.908Z,976.24
2017-05-05T07:19:18.271Z,976.25
2017-05-05T07:20:21.180Z,976.22
2017-05-05T07:21:23.535Z,976.24
2017-05-05T07:22:25.902Z,976.23
2017-05-05T07:23:28.263Z,976.25
2017-05-05T07:24:30.623Z,976.25
2017-05-05T07:25:33.596Z,976.19
2017-05-05T07:26:35.955Z,976.18
2017-05-05T07:27:38.304Z,976.16
2017-05-05T07:28:40.669Z,976.16
2017-05-05T07:29:43.032Z,976.13
2017-05-05T07:30:46.090Z,976.12
2017-05-05T07:31:48.446Z,976.09
2017-05-05T07:32:50.815Z,976.08
2017-05-05T07:33:53.186Z,976.06
2017-05-05T07:34:55.542Z,976.07
2017-05-05T07:35:58.508Z,976.05
2017-05-05T07:37:00.865Z,976.04
2017-05-05T07:38:03.221Z,976.03
2017-05-05T07:39:05.581Z,975.98
2017-05-05T07:40:07.935Z,975.95
2017-05-05T07:41:10.899Z,975.94
2017-05-05T07:42:13.265Z,975.96
2017-05-05T07:43:15.628Z,975.85
2017-05-05T07:44:17.977Z,975.88
2017-05-05T07:45:20.341Z,975.88
2017-05-05T07:46:23.305Z,975.87
2017-05-05T07:47:25.654Z,975.82
2017-05-05T07:48:28.009Z,975.87
2017-05-05T07:49:30.372Z,975.84
2017-05-05T07:50:32.730Z,975.83
2017-05-05T07:51:35.696Z,975.85
2017-05-05T07:52:38.051Z,975.83
2017-05-05T07:53:40.415Z,975.83
2017-05-05T07:54:42.769Z,975.87
2017-05-05T07:55:45.127Z,975.84
2017-05-05T07:56:48.196Z,975.83
2017-05-05T07:57:50.545Z,975.81
2017-05-05T07:58:52.905Z,975.83
2017-05-05T07:59:55.276Z,975.83
2017-05-05T08:00:57.621Z,975.80
2017-05-05T08:02:00.586Z,975.79
2017-05-05T08:03:02.941Z,975.76
2017-05-05T08:04:05.301Z,975.74
2017-05-05T08:05:07.655Z,975.70
2017-05-05T08:06:10.008Z,975.69
2017-05-05T08:07:12.974Z,975.70
2017-05-05T08:08:15.331Z,975.66
2017-05-05T08:09:17.684Z,975.65
2017-05-05T08:10:20.039Z,975.63
2017-05-05T08:11:22.414Z,975.61
2017-05-05T08:12:25.369Z,975.62
2017-05-05T08:13:27.731Z,975.59
2017-05-05T08:14:30.086Z,975.56
2017-05-05T08:15:32.451Z,975.56
2017-05-05T08:16:34.809Z,975.54
2017-05-05T08:17:39.674Z,975.50
2017-05-05T08:18:42.030Z,975.49
2017-05-05T08:19:44.398Z,975.49
2017-05-05T08:20:46.761Z,975.46
2017-05-05T08:21:49.119Z,975.47
2017-05-05T08:22:52.078Z,975.47
2017-05-05T08:23:54.438Z,975.46
2017-05-05T08:24:56.790Z,975.45
2017-05-05T08:25:59.151Z,975.44
2017-05-05T08:27:01.515Z,975.43
2017-05-05T08:28:04.471Z,975.48
2017-05-05T08:29:06.829Z,975.44
2017-05-05T08:30:09.193Z,975.44
2017-05-05T08:31:11.557Z,975.43
2017-05-05T08:32:13.910Z,975.41
2017-05-05T08:33:16.979Z,975.40
2017-05-05T08:34:19.337Z,975.42
2017-05-05T08:35:21.699Z,975.41
2017-05-05T08:36:24.054Z,975.37
2017-05-05T08:37:26.413Z,975.36
2017-05-05T08:38:29.378Z,975.38
2017-05-05T08:39:31.732Z,975.39
2017-05-05T08:40:34.087Z,975.38
2017-05-05T08:41:36.449Z,975.40
2017-05-05T08:42:38.818Z,975.40
2017-05-05T08:43:41.876Z,975.38
2017-05-05T08:44:44.228Z,975.39
2017-05-05T08:45:46.590Z,975.38
2017-05-05T08:46:48.946Z,975.38
2017-05-05T08:47:51.303Z,975.32
2017-05-05T08:48:54.263Z,975.38
2017-05-05T08:49:56.621Z,975.32
2017-05-05T08:50:58.979Z,975.34
2017-05-05T08:52:01.355Z,975.35
2017-05-05T08:53:03.706Z,975.32
2017-05-05T08:54:06.670Z,975.34
2017-05-05T08:55:09.034Z,975.34
2017-05-05T08:56:11.396Z,975.31
2017-05-05T08:57:13.750Z,975.27
2017-05-05T08:58:16.106Z,975.24
2017-05-05T08:59:19.070Z,975.22
2017-05-05T09:00:21.433Z,975.18
2017-05-05T09:01:23.791Z,975.21
2017-05-05T09:02:26.152Z,975.16
2017-05-05T09:03:28.503Z,975.17
2017-05-05T09:04:31.574Z,975.17
2017-05-05T09:05:33.932Z,975.21
2017-05-05T09:06:36.294Z,975.22
2017-05-05T09:07:38.651Z,975.20
2017-05-05T09:08:41.010Z,975.22
2017-05-05T09:09:44.072Z,975.24
2017-05-05T09:10:46.427Z,975.27
2017-05-05T09:11:48.799Z,975.22
2017-05-05T09:12:51.148Z,975.22
2017-05-05T09:13:53.509Z,975.24
2017-05-05T09:14:56.459Z,975.21
2017-05-05T09:15:58.822Z,975.24
2017-05-05T09:17:01.183Z,975.24
2017-05-05T09:18:03.541Z,975.23
2017-05-05T09:19:05.896Z,975.25
2017-05-05T09:21:09.429Z,975.22
2017-05-05T09:22:11.789Z,975.24
2017-05-05T09:23:14.162Z,975.27
2017-05-05T09:24:16.521Z,975.20
2017-05-05T09:25:18.880Z,975.23
2017-05-05T09:26:21.842Z,975.28
2017-05-05T09:27:24.203Z,975.26
2017-05-05T09:28:26.570Z,975.24
2017-05-05T09:29:28.931Z,975.24
2017-05-05T09:30:31.290Z,975.21
2017-05-05T09:31:34.250Z,975.24
2017-05-05T09:32:36.609Z,975.24
2017-05-05T09:33:38.972Z,975.23
2017-05-05T09:34:41.326Z,975.19
2017-05-05T09:35:43.687Z,975.18
2017-05-05T09:36:46.746Z,975.17
2017-05-05T09:37:49.110Z,975.19
2017-05-05T09:38:51.474Z,975.15
2017-05-05T09:39:53.840Z,975.14
2017-05-05T09:40:56.186Z,975.14
2017-05-05T09:41:59.146Z,975.14
2017-05-05T09:43:01.504Z,975.13
2017-05-05T09:44:03.864Z,975.15
2017-05-05T09:45:06.220Z,975.12
2017-05-05T09:46:08.579Z,975.10
2017-05-05T09:47:11.632Z,975.10
2017-05-05T09:48:13.988Z,975.11
2017-05-05T09:49:16.359Z,975.11
2017-05-05T09:50:18.719Z,975.11
2017-05-05T09:51:21.072Z,975.10
2017-05-05T09:52:24.036Z,975.07
2017-05-05T09:53:26.399Z,975.05
2017-05-05T09:54:28.755Z,975.04
2017-05-05T09:55:31.119Z,975.03
2017-05-05T09:56:33.484Z,975.03
2017-05-05T09:57:36.439Z,975.07
2017-05-05T09:58:38.807Z,975.07
2017-05-05T09:59:41.172Z,975.07
2017-05-05T10:00:43.526Z,975.10
2017-05-05T10:01:45.884Z,975.07
2017-05-05T10:02:48.854Z,975.11
2017-05-05T10:03:51.209Z,975.13
2017-05-05T10:04:53.564Z,975.14
2017-05-05T10:05:55.935Z,975.19
2017-05-05T10:06:58.287Z,975.20
2017-05-05T10:08:01.243Z,975.18
2017-05-05T10:09:03.600Z,975.19
2017-05-05T10:10:05.964Z,975.20
2017-05-05T10:11:08.328Z,975.15
2017-05-05T10:12:10.691Z,975.18
2017-05-05T10:13:13.644Z,975.16
2017-05-05T10:14:16.001Z,975.19
2017-05-05T10:15:18.352Z,975.23
2017-05-05T10:16:20.716Z,975.23
2017-05-05T10:17:23.069Z,975.26
2017-05-05T10:18:26.034Z,975.24
2017-05-05T10:19:28.390Z,975.25
2017-05-05T10:20:30.759Z,975.27
2017-05-05T10:21:33.115Z,975.27
2017-05-05T10:22:35.480Z,975.23
2017-05-05T10:23:38.446Z,975.24
2017-05-05T10:24:40.815Z,975.25
2017-05-05T10:25:43.173Z,975.23
2017-05-05T10:26:45.528Z,975.25
2017-05-05T10:27:47.886Z,975.28
2017-05-05T10:28:50.942Z,975.31
2017-05-05T10:29:53.299Z,975.27
2017-05-05T10:30:55.652Z,975.31
2017-05-05T10:31:58.011Z,975.31
2017-05-05T10:33:00.372Z,975.34
2017-05-05T10:34:03.333Z,975.35
2017-05-05T10:35:05.695Z,975.34
2017-05-05T10:36:08.045Z,975.36
2017-05-05T10:37:10.407Z,975.36
2017-05-05T10:38:12.962Z,975.34
2017-05-05T10:39:16.023Z,975.33
2017-05-05T10:40:18.383Z,975.34
2017-05-05T10:41:20.740Z,975.33
2017-05-05T10:42:23.099Z,975.34
2017-05-05T10:43:25.467Z,975.33
2017-05-05T10:44:28.420Z,975.31
2017-05-05T10:45:30.780Z,975.31
2017-05-05T10:46:33.140Z,975.31
2017-05-05T10:47:35.492Z,975.32
2017-05-05T10:48:37.854Z,975.34
2017-05-05T10:49:40.818Z,975.36
2017-05-05T10:50:43.174Z,975.36
2017-05-05T10:51:45.549Z,975.35
2017-05-05T10:52:47.911Z,975.38
2017-05-05T10:53:50.281Z,975.38
2017-05-05T10:54:53.225Z,975.39
2017-05-05T10:55:55.590Z,975.38
2017-05-05T10:56:57.945Z,975.38
2017-05-05T10:58:00.313Z,975.39
2017-05-05T10:59:02.669Z,975.37
2017-05-05T11:00:05.579Z,975.40
2017-05-05T11:01:07.934Z,975.42
2017-05-05T11:02:10.300Z,975.44
2017-05-05T11:03:12.654Z,975.48
2017-05-05T11:04:15.018Z,975.50
2017-05-05T11:05:17.974Z,975.52
2017-05-05T11:06:20.332Z,975.53
2017-05-05T11:07:22.692Z,975.57
2017-05-05T11:08:25.052Z,975.55
2017-05-05T11:09:27.411Z,975.58
2017-05-05T11:10:30.373Z,975.56
2017-05-05T11:11:32.723Z,975.56
2017-05-05T11:12:35.084Z,975.62
2017-05-05T11:13:37.438Z,975.62
2017-05-05T11:14:39.798Z,975.62
2017-05-05T11:15:42.761Z,975.64
2017-05-05T11:16:45.111Z,975.59
2017-05-05T11:17:47.474Z,975.64
2017-05-05T11:18:49.835Z,975.64
2017-05-05T11:19:52.191Z,975.67
2017-05-05T11:20:55.149Z,975.64
2017-05-05T11:21:57.517Z,975.63
2017-05-05T11:22:59.881Z,975.62
2017-05-05T11:24:02.238Z,975.60
2017-05-05T11:25:04.598Z,975.66
2017-05-05T11:26:07.558Z,975.66
2017-05-05T11:27:09.918Z,975.60
2017-05-05T11:28:12.279Z,975.67
2017-05-05T11:29:14.636Z,975.67
2017-05-05T11:30:17.005Z,975.66
2017-05-05T11:31:19.964Z,975.69
2017-05-05T11:32:22.332Z,975.68
2017-05-05T11:33:24.691Z,975.71
2017-05-05T11:34:27.048Z,975.73
2017-05-05T11:35:29.425Z,975.70
2017-05-05T11:36:32.436Z,975.72
2017-05-05T11:37:34.793Z,975.73
2017-05-05T11:38:37.164Z,975.73
2017-05-05T11:39:39.521Z,975.76
2017-05-05T11:40:41.901Z,975.75
2017-05-05T11:41:44.856Z,975.79
2017-05-05T11:42:47.212Z,975.81
2017-05-05T11:43:49.569Z,975.82
2017-05-05T11:44:51.927Z,975.84
2017-05-05T11:45:54.285Z,975.83
2017-05-05T11:46:57.196Z,975.88
2017-05-05T11:47:59.565Z,975.87
2017-05-05T11:49:01.919Z,975.90
2017-05-05T11:50:04.280Z,975.90
2017-05-05T11:51:06.645Z,975.89
2017-05-05T11:52:09.552Z,975.88
2017-05-05T11:53:11.925Z,975.93
2017-05-05T11:54:14.279Z,975.95
2017-05-05T11:55:16.637Z,975.93
2017-05-05T11:56:19.033Z,975.95
2017-05-05T11:57:21.915Z,975.98
2017-05-05T11:58:24.269Z,975.99
2017-05-05T11:59:26.634Z,976.04
2017-05-05T12:00:28.995Z,976.01
2017-05-05T12:01:31.357Z,976.00
2017-05-05T12:02:34.323Z,976.02
2017-05-05T12:03:36.689Z,976.02
2017-05-05T12:04:39.050Z,976.00
2017-05-05T12:05:41.416Z,976.04
2017-05-05T12:06:43.777Z,976.06
2017-05-05T12:07:46.757Z,976.06
2017-05-05T12:08:49.113Z,976.07
2017-05-05T12:09:51.482Z,976.07
2017-05-05T12:10:53.853Z,976.08
2017-05-05T12:11:56.224Z,976.08
2017-05-05T12:12:59.186Z,976.02
2017-05-05T12:14:01.560Z,976.05
2017-05-05T12:15:03.910Z,976.03
2017-05-05T12:16:06.274Z,976.05
2017-05-05T12:17:08.645Z,976.04
2017-05-05T12:18:11.616Z,976.02
2017-05-05T12:19:13.972Z,976.07
2017-05-05T12:20:16.338Z,976.03
2017-05-05T12:21:18.702Z,976.04
2017-05-05T12:22:21.073Z,976.04
2017-05-05T12:23:24.037Z,976.10
2017-05-05T12:24:26.401Z,976.13
2017-05-05T12:25:28.753Z,976.14
2017-05-05T12:26:31.124Z,976.16
2017-05-05T12:27:33.479Z,976.18
2017-05-05T12:28:36.437Z,976.19
2017-05-05T12:29:38.795Z,976.25
2017-05-05T12:30:41.158Z,976.26
2017-05-05T12:31:43.525Z,976.28
2017-05-05T12:32:45.884Z,976.29
2017-05-05T12:33:48.859Z,976.31
2017-05-05T12:34:51.217Z,976.35
2017-05-05T12:35:53.589Z,976.32
2017-05-05T12:36:55.949Z,976.36
2017-05-05T12:37:58.317Z,976.36
2017-05-05T12:39:01.278Z,976.35
2017-05-05T12:40:03.648Z,976.35
2017-05-05T12:41:06.011Z,976.41
2017-05-05T12:42:08.371Z,976.37
2017-05-05T12:43:10.732Z,976.40
2017-05-05T12:44:13.699Z,976.36
2017-05-05T12:45:16.049Z,976.36
2017-05-05T12:46:18.419Z,976.42
2017-05-05T12:47:20.779Z,976.46
2017-05-05T12:48:23.142Z,976.50
2017-05-05T12:49:26.099Z,976.55
2017-05-05T12:50:28.466Z,976.60
2017-05-05T12:51:30.837Z,976.59
2017-05-05T12:52:33.202Z,976.58
2017-05-05T12:53:35.565Z,976.62
2017-05-05T12:54:38.536Z,976.60
2017-05-05T12:55:40.885Z,976.61
2017-05-05T12:56:43.254Z,976.61
2017-05-05T12:57:45.616Z,976.65
2017-05-05T12:58:47.984Z,976.69
2017-05-05T12:59:50.963Z,976.65
2017-05-05T13:00:53.320Z,976.65
2017-05-05T13:01:55.688Z,976.65